createdAt,value
2018-04-23T00:01:09.559Z,99687.91
2018-04-23T00:03:37.891Z,99686.31
2018-04-23T00:06:06.241Z,99676.61
2018-04-23T00:08:34.569Z,99676.68
2018-04-23T00:11:02.933Z,99682.71
2018-04-23T00:13:31.260Z,99686.64
2018-04-23T00:15:59.598Z,99680.98
2018-04-23T00:18:27.942Z,99687.86
2018-04-23T00:20:56.313Z,99699.30
2018-04-23T00:23:24.641Z,99733.44
2018-04-23T00:25:52.977Z,99775.19
2018-04-23T00:28:21.294Z,99744.95
2018-04-23T00:30:49.645Z,99707.38
2018-04-23T00:33:17.963Z,99699.95
2018-04-23T00:35:46.302Z,99710.68
2018-04-23T00:38:14.663Z,99692.86
2018-04-23T00:40:42.986Z,99696.00
2018-04-23T00:43:11.344Z,99678.34
2018-04-23T00:45:39.680Z,99669.64
2018-04-23T00:48:08.033Z,99663.63
2018-04-23T00:50:36.366Z,99663.10
2018-04-23T00:53:16.483Z,99666.16
2018-04-23T00:55:44.806Z,99667.98
2018-04-23T00:58:13.151Z,99671.73
2018-04-23T01:00:41.500Z,99670.70
2018-04-23T01:03:09.848Z,99674.01
2018-04-23T01:05:38.170Z,99682.91
2018-04-23T01:08:06.524Z,99675.97
2018-04-23T01:10:34.859Z,99678.06
2018-04-23T01:13:03.203Z,99672.69
2018-04-23T01:15:31.543Z,99666.81
2018-04-23T01:17:59.909Z,99664.92
2018-04-23T01:20:28.230Z,99657.14
2018-04-23T01:22:56.588Z,99663.73
2018-04-23T01:25:24.927Z,99666.56
2018-04-23T01:27:53.460Z,99672.97
2018-04-23T01:30:21.857Z,99677.50
2018-04-23T01:32:50.188Z,99686.66
2018-04-23T01:35:18.583Z,99682.48
2018-04-23T01:37:46.917Z,99682.06
2018-04-23T01:40:15.261Z,99679.35
2018-04-23T01:42:43.569Z,99691.39
2018-04-23T01:45:11.919Z,99684.88
2018-04-23T01:47:40.243Z,99688.03
2018-04-23T01:50:08.623Z,99698.01
2018-04-23T01:52:37.834Z,99677.34
2018-04-23T01:55:06.176Z,99680.52
2018-04-23T01:57:34.503Z,99691.77
2018-04-23T02:00:02.882Z,99688.55
2018-04-23T02:02:33.069Z,99686.56
2018-04-23T02:05:01.409Z,99683.59
2018-04-23T02:07:29.745Z,99689.34
2018-04-23T02:09:59.149Z,99681.01
2018-04-23T02:12:27.468Z,99675.30
2018-04-23T02:14:55.787Z,99674.64
2018-04-23T02:17:24.145Z,99670.23
2018-04-23T02:19:52.464Z,99668.48
2018-04-23T02:22:20.817Z,99663.30
2018-04-23T02:24:49.126Z,99650.86
2018-04-23T02:27:17.463Z,99652.33
2018-04-23T02:29:45.785Z,99650.53
2018-04-23T02:32:14.120Z,99643.48
2018-04-23T02:34:42.443Z,99642.50
2018-04-23T02:37:10.777Z,99639.59
2018-04-23T02:39:39.118Z,99642.39
2018-04-23T02:42:07.459Z,99650.53
2018-04-23T02:44:35.784Z,99642.09
2018-04-23T02:47:04.126Z,99639.20
2018-04-23T02:49:32.447Z,99638.94
2018-04-23T02:52:00.797Z,99638.55
2018-04-23T02:54:29.225Z,99632.89
2018-04-23T02:56:57.574Z,99632.52
2018-04-23T02:59:25.904Z,99633.83
2018-04-23T03:01:54.223Z,99642.02
2018-04-23T03:04:22.591Z,99633.71
2018-04-23T03:06:50.918Z,99639.62
2018-04-23T03:09:19.262Z,99638.17
2018-04-23T03:11:47.590Z,99631.12
2018-04-23T03:14:15.973Z,99636.66
2018-04-23T03:16:44.283Z,99634.23
2018-04-23T03:19:12.626Z,99635.78
2018-04-23T03:21:40.944Z,99629.97
2018-04-23T03:24:09.275Z,99629.66
2018-04-23T03:26:37.621Z,99628.75
2018-04-23T03:29:05.956Z,99630.84
2018-04-23T03:31:34.284Z,99637.53
2018-04-23T03:34:02.649Z,99629.13
2018-04-23T03:36:31.041Z,99635.89
2018-04-23T03:38:59.378Z,99628.63
2018-04-23T03:41:27.709Z,99632.38
2018-04-23T03:43:56.051Z,99625.53
2018-04-23T03:46:24.384Z,99628.23
2018-04-23T03:48:52.705Z,99637.70
2018-04-23T03:51:21.032Z,99638.56
2018-04-23T03:53:49.373Z,99634.69
2018-04-23T03:56:18.211Z,99644.70
2018-04-23T03:58:46.532Z,99638.26
2018-04-23T04:01:14.874Z,99635.78
2018-04-23T04:03:43.288Z,99641.36
2018-04-23T04:06:11.626Z,99641.53
2018-04-23T04:08:39.971Z,99643.27
2018-04-23T04:11:08.316Z,99648.89
2018-04-23T04:13:48.510Z,99648.81
2018-04-23T04:16:28.601Z,99645.30
2018-04-23T04:18:56.948Z,99642.50
2018-04-23T04:21:25.300Z,99637.25
2018-04-23T04:23:53.672Z,99651.30
2018-04-23T04:26:22.003Z,99644.91
2018-04-23T04:28:51.161Z,99636.88
2018-04-23T04:31:19.501Z,99639.38
2018-04-23T04:33:47.834Z,99640.05
2018-04-23T04:36:16.281Z,99644.34
2018-04-23T04:38:44.594Z,99638.91
2018-04-23T04:41:12.921Z,99637.67
2018-04-23T04:43:41.265Z,99639.73
2018-04-23T04:46:10.034Z,99642.05
2018-04-23T04:48:42.917Z,99643.37
2018-04-23T04:51:11.250Z,99645.11
2018-04-23T04:53:39.659Z,99640.23
2018-04-23T04:56:07.995Z,99646.48
2018-04-23T04:58:36.334Z,99646.54
2018-04-23T05:01:04.660Z,99646.55
2018-04-23T05:03:33.073Z,99645.27
2018-04-23T05:06:01.404Z,99649.44
2018-04-23T05:08:29.840Z,99659.20
2018-04-23T05:10:58.185Z,99660.38
2018-04-23T05:13:26.536Z,99658.22
2018-04-23T05:15:54.856Z,99661.83
2018-04-23T05:18:23.183Z,99657.45
2018-04-23T05:20:51.633Z,99667.70
2018-04-23T05:23:20.032Z,99666.03
2018-04-23T05:25:48.433Z,99670.51
2018-04-23T05:28:16.789Z,99671.08
2018-04-23T05:30:45.372Z,99673.70
2018-04-23T05:33:13.788Z,99676.55
2018-04-23T05:35:42.116Z,99672.73
2018-04-23T05:38:10.438Z,99674.98
2018-04-23T05:40:38.823Z,99677.73
2018-04-23T05:43:07.257Z,99683.20
2018-04-23T05:45:35.601Z,99685.45
2018-04-23T05:48:03.954Z,99684.30
2018-04-23T05:50:32.287Z,99676.52
2018-04-23T05:53:00.621Z,99679.19
2018-04-23T05:55:29.002Z,99679.03
2018-04-23T05:57:57.326Z,99680.05
2018-04-23T06:00:25.663Z,99669.91
2018-04-23T06:02:54.003Z,99666.95
2018-04-23T06:05:22.370Z,99675.88
2018-04-23T06:07:50.688Z,99666.67
2018-04-23T06:10:19.025Z,99666.52
2018-04-23T06:12:47.369Z,99666.13
2018-04-23T06:15:15.707Z,99672.62
2018-04-23T06:17:44.036Z,99670.23
2018-04-23T06:20:12.375Z,99676.16
2018-04-23T06:22:40.720Z,99673.05
2018-04-23T06:25:09.088Z,99672.46
2018-04-23T06:27:37.427Z,99670.55
2018-04-23T06:30:05.760Z,99668.53
2018-04-23T06:32:34.112Z,99664.16
2018-04-23T06:35:02.446Z,99658.73
2018-04-23T06:37:30.969Z,99656.50
2018-04-23T06:39:59.329Z,99659.56
2018-04-23T06:42:27.681Z,99659.44
2018-04-23T06:44:56.031Z,99675.07
2018-04-23T06:47:24.380Z,99683.66
2018-04-23T06:49:52.807Z,99688.98
2018-04-23T06:52:21.126Z,99694.11
2018-04-23T06:54:49.485Z,99701.31
2018-04-23T06:57:17.828Z,99708.54
2018-04-23T06:59:46.139Z,99714.73
2018-04-23T07:02:14.514Z,99711.88
2018-04-23T07:04:42.916Z,99715.19
2018-04-23T07:07:11.180Z,99714.44
2018-04-23T07:09:39.517Z,99723.88
2018-04-23T07:12:07.841Z,99717.09
2018-04-23T07:14:36.153Z,99712.17
2018-04-23T07:17:04.482Z,99721.95
2018-04-23T07:19:32.797Z,99728.80
2018-04-23T07:22:01.128Z,99727.37
2018-04-23T07:24:29.473Z,99723.22
2018-04-23T07:26:57.791Z,99728.56
2018-04-23T07:29:26.141Z,99733.97
2018-04-23T07:31:54.467Z,99736.33
2018-04-23T07:34:22.780Z,99730.84
2018-04-23T07:36:51.104Z,99735.36
2018-04-23T07:39:19.444Z,99759.11
2018-04-23T07:41:47.769Z,99751.26
2018-04-23T07:44:16.144Z,99760.18
2018-04-23T07:46:44.482Z,99759.19
2018-04-23T07:49:12.782Z,99750.13
2018-04-23T07:51:41.139Z,99737.17
2018-04-23T07:54:09.557Z,99741.40
2018-04-23T07:56:37.864Z,99752.73
2018-04-23T07:59:06.191Z,99744.23
2018-04-23T08:01:34.515Z,99735.39
2018-04-23T08:04:02.850Z,99732.32
2018-04-23T08:06:31.194Z,99729.98
2018-04-23T08:08:59.572Z,99728.20
2018-04-23T08:11:27.947Z,99726.84
2018-04-23T08:13:56.292Z,99738.09
2018-04-23T08:16:24.716Z,99740.94
2018-04-23T08:18:53.093Z,99735.06
2018-04-23T08:21:21.422Z,99735.90
2018-04-23T08:23:49.772Z,99731.58
2018-04-23T08:26:18.138Z,99736.45
2018-04-23T08:28:46.525Z,99743.62
2018-04-23T08:31:14.877Z,99749.20
2018-04-23T08:33:43.244Z,99738.34
2018-04-23T08:36:11.592Z,99740.22
2018-04-23T08:38:39.989Z,99747.50
2018-04-23T08:41:08.328Z,99746.53
2018-04-23T08:43:36.671Z,99752.90
2018-04-23T08:46:05.004Z,99757.23
2018-04-23T08:48:33.359Z,99752.08
2018-04-23T08:51:01.681Z,99761.86
2018-04-23T08:53:30.033Z,99760.41
2018-04-23T08:55:58.381Z,99761.94
2018-04-23T08:58:26.707Z,99772.78
2018-04-23T09:00:55.047Z,99775.14
2018-04-23T09:03:23.404Z,99772.99
2018-04-23T09:05:52.449Z,99773.27
2018-04-23T09:08:20.819Z,99771.40
2018-04-23T09:10:49.388Z,99775.00
2018-04-23T09:13:18.227Z,99773.13
2018-04-23T09:15:46.748Z,99777.48
2018-04-23T09:18:15.071Z,99775.66
2018-04-23T09:20:43.430Z,99770.39
2018-04-23T09:23:11.772Z,99780.16
2018-04-23T09:25:40.112Z,99781.48
2018-04-23T09:28:10.518Z,99781.38
2018-04-23T09:30:38.869Z,99783.16
2018-04-23T09:33:07.199Z,99789.77
2018-04-23T09:35:35.550Z,99788.78
2018-04-23T09:38:03.887Z,99789.56
2018-04-23T09:40:32.220Z,99787.44
2018-04-23T09:43:00.552Z,99783.31
2018-04-23T09:45:28.879Z,99779.27
2018-04-23T09:47:57.224Z,99786.91
2018-04-23T09:50:25.543Z,99782.53
2018-04-23T09:52:53.891Z,99787.36
2018-04-23T09:55:22.220Z,99783.30
2018-04-23T09:57:50.565Z,99778.59
2018-04-23T10:00:24.529Z,99781.44
2018-04-23T10:02:52.977Z,99786.70
2018-04-23T10:05:21.294Z,99791.27
2018-04-23T10:07:49.647Z,99792.17
2018-04-23T10:10:18.002Z,99779.05
2018-04-23T10:12:46.347Z,99776.45
2018-04-23T10:15:14.685Z,99778.67
2018-04-23T10:17:45.746Z,99775.77
2018-04-23T10:20:14.099Z,99769.67
2018-04-23T10:22:42.416Z,99774.05
2018-04-23T10:25:10.758Z,99782.83
2018-04-23T10:27:39.102Z,99783.20
2018-04-23T10:30:07.433Z,99778.20
2018-04-23T10:32:35.763Z,99774.51
2018-04-23T10:35:04.124Z,99773.98
2018-04-23T10:37:32.457Z,99766.92
2018-04-23T10:40:00.808Z,99770.41
2018-04-23T10:42:29.141Z,99775.34
2018-04-23T10:44:57.595Z,99771.17
2018-04-23T10:47:25.924Z,99760.81
2018-04-23T10:49:54.278Z,99770.06
2018-04-23T10:52:22.605Z,99764.02
2018-04-23T10:54:50.977Z,99765.66
2018-04-23T10:57:19.301Z,99771.92
2018-04-23T10:59:47.644Z,99765.67
2018-04-23T11:02:15.987Z,99757.27
2018-04-23T11:04:44.325Z,99749.20
2018-04-23T11:07:12.663Z,99740.96
2018-04-23T11:09:41.007Z,99741.69
2018-04-23T11:12:09.326Z,99740.38
2018-04-23T11:14:37.674Z,99741.92
2018-04-23T11:17:06.014Z,99740.42
2018-04-23T11:19:34.341Z,99749.34
2018-04-23T11:22:02.685Z,99744.44
2018-04-23T11:24:31.032Z,99746.14
2018-04-23T11:26:59.380Z,99751.70
2018-04-23T11:29:27.706Z,99755.69
2018-04-23T11:31:56.044Z,99754.97
2018-04-23T11:34:24.376Z,99757.73
2018-04-23T11:36:52.703Z,99765.91
2018-04-23T11:39:21.020Z,99770.02
2018-04-23T11:41:49.379Z,99773.90
2018-04-23T11:44:17.691Z,99769.48
2018-04-23T11:46:46.033Z,99779.11
2018-04-23T11:49:14.352Z,99778.91
2018-04-23T11:51:42.671Z,99783.98
2018-04-23T11:54:11.009Z,99782.92
2018-04-23T11:56:39.354Z,99787.25
2018-04-23T11:59:07.697Z,99791.45
2018-04-23T12:01:36.013Z,99792.23
2018-04-23T12:04:04.337Z,99806.27
2018-04-23T12:06:32.701Z,99811.41
2018-04-23T12:09:01.051Z,99812.69
2018-04-23T12:11:29.369Z,99806.11
2018-04-23T12:13:57.733Z,99803.06
2018-04-23T12:16:26.045Z,99800.34
2018-04-23T12:18:54.373Z,99793.98
2018-04-23T12:21:22.696Z,99789.09
2018-04-23T12:23:51.028Z,99799.88
2018-04-23T12:26:19.365Z,99798.48
2018-04-23T12:28:47.707Z,99791.03
2018-04-23T12:31:16.071Z,99786.83
2018-04-23T12:33:44.400Z,99796.34
2018-04-23T12:36:12.776Z,99785.11
2018-04-23T12:38:41.167Z,99785.27
2018-04-23T12:41:09.490Z,99783.62
2018-04-23T12:43:37.808Z,99781.90
2018-04-23T12:46:06.245Z,99783.04
2018-04-23T12:48:34.499Z,99774.13
2018-04-23T12:51:03.830Z,99781.97
2018-04-23T12:53:32.167Z,99779.49
2018-04-23T12:56:00.572Z,99777.52
2018-04-23T12:58:28.940Z,99774.66
2018-04-23T13:00:57.259Z,99770.73
2018-04-23T13:03:25.594Z,99764.14
2018-04-23T13:05:53.955Z,99758.52
2018-04-23T13:08:22.308Z,99755.13
2018-04-23T13:10:50.656Z,99746.30
2018-04-23T13:13:18.970Z,99731.98
2018-04-23T13:15:47.303Z,99725.59
2018-04-23T13:18:15.669Z,99715.80
2018-04-23T13:20:43.999Z,99703.78
2018-04-23T13:23:12.637Z,99702.34
2018-04-23T13:25:41.339Z,99703.51
2018-04-23T13:28:09.680Z,99699.93
2018-04-23T13:30:38.033Z,99701.05
2018-04-23T13:33:06.383Z,99698.31
2018-04-23T13:35:34.720Z,99693.00
2018-04-23T13:38:03.069Z,99689.66
2018-04-23T13:40:31.413Z,99687.25
2018-04-23T13:42:59.775Z,99679.98
2018-04-23T13:45:28.117Z,99674.69
2018-04-23T13:47:56.475Z,99679.89
2018-04-23T13:50:24.832Z,99680.02
2018-04-23T13:52:53.197Z,99669.09
2018-04-23T13:55:21.540Z,99671.27
2018-04-23T13:57:49.975Z,99675.94
2018-04-23T14:00:18.366Z,99666.04
2018-04-23T14:02:46.746Z,99671.02
2018-04-23T14:05:15.111Z,99669.07
2018-04-23T14:07:43.429Z,99672.08
2018-04-23T14:10:11.804Z,99671.56
2018-04-23T14:12:40.151Z,99672.25
2018-04-23T14:15:08.485Z,99679.56
2018-04-23T14:17:36.862Z,99677.70
2018-04-23T14:20:05.199Z,99678.45
2018-04-23T14:22:33.642Z,99680.42
2018-04-23T14:25:02.030Z,99677.81
2018-04-23T14:27:30.379Z,99670.73
2018-04-23T14:29:58.769Z,99663.79
2018-04-23T14:32:27.126Z,99668.10
2018-04-23T14:34:55.470Z,99670.31
2018-04-23T14:37:23.869Z,99661.92
2018-04-23T14:39:52.210Z,99660.66
2018-04-23T14:42:20.569Z,99660.88
2018-04-23T14:44:48.931Z,99652.24
2018-04-23T14:47:17.288Z,99650.51
2018-04-23T14:49:45.621Z,99641.31
2018-04-23T14:52:13.985Z,99632.36
2018-04-23T14:54:42.343Z,99622.48
2018-04-23T14:57:10.727Z,99633.89
2018-04-23T14:59:39.558Z,99641.42
2018-04-23T15:02:07.927Z,99684.95
2018-04-23T15:04:36.262Z,99746.31
2018-04-23T15:07:04.815Z,99781.67
2018-04-23T15:09:33.196Z,99802.76
2018-04-23T15:12:01.516Z,99799.14
2018-04-23T15:14:34.890Z,99788.62
2018-04-23T15:17:03.255Z,99764.52
2018-04-23T15:19:31.599Z,99765.48
2018-04-23T15:21:59.960Z,99748.14
2018-04-23T15:24:28.351Z,99747.52
2018-04-23T15:26:56.679Z,99756.88
2018-04-23T15:29:25.015Z,99749.16
2018-04-23T15:31:53.361Z,99754.10
2018-04-23T15:34:21.796Z,99738.06
2018-04-23T15:36:50.436Z,99742.73
2018-04-23T15:39:18.779Z,99747.97
2018-04-23T15:41:47.127Z,99751.67
2018-04-23T15:44:15.464Z,99750.97
2018-04-23T15:46:43.823Z,99754.27
2018-04-23T15:49:12.188Z,99757.69
2018-04-23T15:51:40.574Z,99760.16
2018-04-23T15:54:11.740Z,99753.39
2018-04-23T15:56:40.098Z,99752.34
2018-04-23T15:59:08.444Z,99752.72
2018-04-23T16:01:36.795Z,99749.13
2018-04-23T16:04:05.155Z,99753.20
2018-04-23T16:06:33.524Z,99755.62
2018-04-23T16:09:01.905Z,99755.23
2018-04-23T16:11:30.232Z,99757.37
2018-04-23T16:13:58.644Z,99757.83
2018-04-23T16:16:27.042Z,99755.50
2018-04-23T16:18:55.413Z,99756.61
2018-04-23T16:21:23.869Z,99761.30
2018-04-23T16:23:52.266Z,99759.70
2018-04-23T16:26:21.499Z,99756.86
2018-04-23T16:28:49.836Z,99770.61
2018-04-23T16:31:18.185Z,99774.84
2018-04-23T16:33:46.519Z,99777.62
2018-04-23T16:36:14.860Z,99784.31
2018-04-23T16:38:43.197Z,99780.89
2018-04-23T16:41:11.591Z,99783.48
2018-04-23T16:43:39.959Z,99786.05
2018-04-23T16:46:08.468Z,99788.47
2018-04-23T16:48:36.828Z,99794.05
2018-04-23T16:51:05.167Z,99805.19
2018-04-23T16:53:33.569Z,99808.70
2018-04-23T16:56:01.903Z,99816.39
2018-04-23T16:58:30.286Z,99822.28
2018-04-23T17:00:58.638Z,99823.59
2018-04-23T17:03:27.009Z,99820.56
2018-04-23T17:05:55.388Z,99809.56
2018-04-23T17:08:23.787Z,99817.14
2018-04-23T17:10:53.019Z,99824.05
2018-04-23T17:13:21.417Z,99833.28
2018-04-23T17:15:49.777Z,99820.46
2018-04-23T17:18:18.854Z,99827.00
2018-04-23T17:20:47.209Z,99824.13
2018-04-23T17:23:15.643Z,99827.13
2018-04-23T17:25:44.028Z,99833.16
2018-04-23T17:28:12.554Z,99830.85
2018-04-23T17:30:40.921Z,99824.16
2018-04-23T17:33:09.273Z,99824.57
2018-04-23T17:35:37.604Z,99827.26
2018-04-23T17:38:06.066Z,99830.02
2018-04-23T17:40:34.435Z,99830.11
2018-04-23T17:43:02.824Z,99822.55
2018-04-23T17:45:31.240Z,99831.73
2018-04-23T17:47:59.597Z,99826.94
2018-04-23T17:50:27.950Z,99825.93
2018-04-23T17:52:56.286Z,99827.11
2018-04-23T17:55:24.700Z,99825.24
2018-04-23T17:57:53.081Z,99826.12
2018-04-23T18:00:21.474Z,99840.55
2018-04-23T18:02:50.602Z,99835.98
2018-04-23T18:05:19.022Z,99837.74
2018-04-23T18:07:47.418Z,99840.34
2018-04-23T18:10:15.782Z,99841.41
2018-04-23T18:12:44.263Z,99841.62
2018-04-23T18:15:12.731Z,99848.13
2018-04-23T18:17:41.136Z,99845.08
2018-04-23T18:20:09.447Z,99845.29
2018-04-23T18:22:37.799Z,99852.45
2018-04-23T18:25:06.192Z,99836.16
2018-04-23T18:27:34.550Z,99847.59
2018-04-23T18:30:02.897Z,99871.91
2018-04-23T18:32:31.288Z,99876.92
2018-04-23T18:34:59.669Z,99881.63
2018-04-23T18:37:27.991Z,99887.83
2018-04-23T18:39:56.450Z,99889.18
2018-04-23T18:42:24.840Z,99895.50
2018-04-23T18:44:53.199Z,99892.66
2018-04-23T18:47:22.037Z,99903.89
2018-04-23T18:49:50.455Z,99901.58
2018-04-23T18:52:18.820Z,99891.67
2018-04-23T18:54:47.196Z,99892.84
2018-04-23T18:57:15.587Z,99901.20
2018-04-23T18:59:43.973Z,99906.48
2018-04-23T19:02:12.355Z,99915.28
2018-04-23T19:04:40.709Z,99923.48
2018-04-23T19:07:09.074Z,99930.47
2018-04-23T19:09:37.447Z,99945.34
2018-04-23T19:12:06.368Z,99947.34
2018-04-23T19:14:35.044Z,99962.22
2018-04-23T19:17:03.514Z,99959.56
2018-04-23T19:19:31.924Z,99957.89
2018-04-23T19:22:00.388Z,99970.47
2018-04-23T19:24:28.787Z,99960.77
2018-04-23T19:26:57.144Z,99964.88
2018-04-23T19:29:25.678Z,99973.27
2018-04-23T19:31:54.004Z,99972.97
2018-04-23T19:34:22.413Z,99977.73
2018-04-23T19:36:51.188Z,99966.86
2018-04-23T19:39:19.547Z,99967.25
2018-04-23T19:41:48.085Z,99967.25
2018-04-23T19:44:16.457Z,99967.56
2018-04-23T19:46:44.845Z,99968.52
2018-04-23T19:49:13.200Z,99974.41
2018-04-23T19:51:41.615Z,99969.87
2018-04-23T19:54:09.993Z,99966.06
2018-04-23T19:56:38.605Z,99958.97
2018-04-23T19:59:06.953Z,99953.91
2018-04-23T20:01:35.431Z,99956.61
2018-04-23T20:04:04.644Z,99954.87
2018-04-23T20:06:33.037Z,99956.17
2018-04-23T20:09:01.406Z,99958.39
2018-04-23T20:11:29.778Z,99957.34
2018-04-23T20:13:58.132Z,99954.25
2018-04-23T20:16:26.524Z,99954.33
2018-04-23T20:18:54.884Z,99954.11
2018-04-23T20:21:23.219Z,99963.95
2018-04-23T20:23:51.660Z,99967.08
2018-04-23T20:26:20.037Z,99966.66
2018-04-23T20:28:48.395Z,99966.03
2018-04-23T20:33:50.881Z,99967.33
2018-04-23T20:36:19.223Z,99969.02
2018-04-23T20:38:47.567Z,99965.83
2018-04-23T20:41:15.953Z,99966.31
2018-04-23T20:43:44.324Z,99970.36
2018-04-23T20:46:12.718Z,99976.88
2018-04-23T20:48:41.113Z,99978.42
2018-04-23T20:51:09.532Z,99978.64
2018-04-23T20:53:37.894Z,99993.02
2018-04-23T20:56:06.304Z,99994.62
2018-04-23T20:58:34.676Z,99992.13
2018-04-23T21:01:03.050Z,99986.34
2018-04-23T21:03:53.814Z,99995.84
2018-04-23T21:06:26.637Z,99999.25
2018-04-23T21:08:55.024Z,100005.02
2018-04-23T21:11:23.385Z,100002.23
2018-04-23T21:13:51.808Z,100000.45
2018-04-23T21:16:20.947Z,100011.95
2018-04-23T21:18:49.373Z,100016.41
2018-04-23T21:21:17.726Z,100013.36
2018-04-23T21:23:46.107Z,100017.93
2018-04-23T21:26:14.461Z,100018.92
2018-04-23T21:28:42.934Z,100020.51
2018-04-23T21:31:11.270Z,100021.98
2018-04-23T21:33:39.718Z,100024.32
2018-04-23T21:36:08.084Z,100027.44
2018-04-23T21:38:36.446Z,100028.42
2018-04-23T21:41:04.775Z,100029.27
2018-04-23T21:43:33.197Z,100033.34
2018-04-23T21:46:01.535Z,100039.84
2018-04-23T21:48:29.908Z,100039.08
2018-04-23T21:50:58.284Z,100042.75
2018-04-23T21:53:26.677Z,100042.41
2018-04-23T21:55:55.052Z,100043.76
2018-04-23T21:58:23.801Z,100049.28
2018-04-23T22:00:52.168Z,100049.05
2018-04-23T22:03:20.536Z,100049.50
2018-04-23T22:05:48.912Z,100058.09
2018-04-23T22:08:17.294Z,100062.70
2018-04-23T22:10:45.709Z,100057.83
2018-04-23T22:13:14.080Z,100054.08
2018-04-23T22:15:42.453Z,100048.20
2018-04-23T22:18:10.821Z,100056.17
2018-04-23T22:20:39.233Z,100050.95
2018-04-23T22:23:07.556Z,100055.16
2018-04-23T22:25:35.966Z,100053.70
2018-04-23T22:28:04.329Z,100063.09
2018-04-23T22:30:32.695Z,100066.32
2018-04-23T22:33:01.050Z,100063.39
2018-04-23T22:35:29.424Z,100060.70
2018-04-23T22:37:57.879Z,100061.19
2018-04-23T22:40:26.146Z,100063.11
2018-04-23T22:42:54.518Z,100061.86
2018-04-23T22:45:22.943Z,100067.51
2018-04-23T22:47:51.287Z,100065.04
2018-04-23T22:50:19.656Z,100071.07
2018-04-23T22:52:48.074Z,100071.33
2018-04-23T22:55:16.461Z,100069.53
2018-04-23T22:57:45.678Z,100075.34
2018-04-23T23:00:14.005Z,100073.26
2018-04-23T23:02:42.508Z,100072.11
2018-04-23T23:05:10.865Z,100074.34
2018-04-23T23:07:48.450Z,100075.55
2018-04-23T23:10:18.953Z,100078.75
2018-04-23T23:12:49.031Z,100079.59
2018-04-23T23:15:17.363Z,100078.84
2018-04-23T23:17:45.721Z,100082.69
2018-04-23T23:20:14.128Z,100083.16
2018-04-23T23:22:42.506Z,100087.82
2018-04-23T23:25:10.871Z,100081.97
2018-04-23T23:27:39.272Z,100083.79
2018-04-23T23:30:07.628Z,100087.08
2018-04-23T23:32:36.039Z,100083.44
2018-04-23T23:35:04.393Z,100087.70
2018-04-23T23:37:32.764Z,100083.83
2018-04-23T23:40:01.226Z,100079.80
2018-04-23T23:42:29.563Z,100079.72
2018-04-23T23:44:57.948Z,100083.27
2018-04-23T23:47:26.295Z,100086.39
2018-04-23T23:49:54.724Z,100088.13
2018-04-23T23:52:23.099Z,100093.42
2018-04-23T23:54:51.488Z,100096.26
2018-04-23T23:57:19.844Z,100090.06
2018-04-23T23:59:48.276Z,100097.36
